Terminal Aerodrome Forecast
Issued by NWS

Home | Current Version | Previous Version | Text Only | Print | Product List | Glossary On
Versions: 1 2 3 4 5 6 7 8 9 10 11 12 13 14 15 16 17 18 19 20 21 22
185
FTUS41 KPBZ 211736
TAFDUJ
TAF
KDUJ 211736Z 2118/2218 13007KT P6SM SCT035 BKN250
     FM220300 VRB03KT 2SM BR SCT010 BKN150
     FM220600 12003KT 1/2SM FG OVC015
     FM221500 10006KT P6SM OVC020=

USA.gov is the U.S. government's official web portal to all federal, state and local government web resources and services.